Time;durP1;ratioP1;P1;durP2;ratioP2;P2;SDS_P1;SDS_P2;PMS_P1;PMS_P2;Temp;Humidity;BMP_temperature;BMP_pressure;BME280_temperature;BME280_humidity;BME280_pressure;Samples;Min_cycle;Max_cycle;Signal;HPM_P1;HPM_P2
2022/10/21 00:01:33;;;;;;;5.57;1.77;;;13.00;99.90;;;;;;5134512;27;21006;-82
2022/10/21 00:04:01;;;;;;;4.43;1.57;;;13.00;99.90;;;;;;5135546;27;20438;-82
2022/10/21 00:06:28;;;;;;;1.70;1.47;;;13.10;99.90;;;;;;5135569;27;20451;-82
2022/10/21 00:08:55;;;;;;;2.30;1.00;;;13.10;99.90;;;;;;5135586;27;20443;-81
2022/10/21 00:11:22;;;;;;;2.03;1.20;;;13.10;99.90;;;;;;5135038;27;20978;-82
2022/10/21 00:13:50;;;;;;;1.57;1.47;;;13.20;99.90;;;;;;5135407;27;20446;-81
2022/10/21 00:16:18;;;;;;;2.70;1.10;;;13.20;99.90;;;;;;5134846;27;20848;-81
2022/10/21 00:18:47;;;;;;;2.10;1.20;;;13.20;99.90;;;;;;5134881;27;20997;-82
2022/10/21 00:21:17;;;;;;;3.13;1.07;;;13.20;99.90;;;;;;5135178;27;20820;-82
2022/10/21 00:23:44;;;;;;;4.27;1.23;;;13.20;99.90;;;;;;5135229;27;20439;-82
2022/10/21 00:26:11;;;;;;;2.47;1.57;;;13.30;99.90;;;;;;5134822;27;20447;-82
2022/10/21 00:28:38;;;;;;;1.63;1.27;;;13.20;99.90;;;;;;5135083;27;20439;-82
2022/10/21 00:31:08;;;;;;;4.57;1.20;;;13.20;99.90;;;;;;5134661;27;20989;-82
2022/10/21 00:33:35;;;;;;;3.63;1.57;;;13.20;99.90;;;;;;5135115;27;20434;-82
2022/10/21 00:36:02;;;;;;;2.47;0.90;;;13.20;99.90;;;;;;5135023;27;20450;-81
2022/10/21 00:38:30;;;;;;;4.07;2.17;;;13.30;99.90;;;;;;5134899;27;20454;-81
2022/10/21 00:40:57;;;;;;;1.63;1.53;;;13.20;99.90;;;;;;5134836;27;20470;-82
2022/10/21 00:43:26;;;;;;;1.73;1.03;;;13.30;99.90;;;;;;5134878;27;20826;-81
2022/10/21 00:45:55;;;;;;;2.50;1.10;;;13.30;99.90;;;;;;5134862;27;20439;-82
2022/10/21 00:48:31;;;;;;;1.10;0.77;;;13.30;99.90;;;;;;5134788;27;20442;-82
2022/10/21 00:51:02;;;;;;;1.33;1.10;;;13.30;99.90;;;;;;5135010;27;20482;-82
2022/10/21 00:53:30;;;;;;;1.20;1.07;;;13.40;99.90;;;;;;5134772;27;20438;-82
2022/10/21 00:56:01;;;;;;;1.50;0.83;;;13.40;99.90;;;;;;5134687;27;20474;-81
2022/10/21 00:58:31;;;;;;;1.47;0.90;;;13.40;99.90;;;;;;5134362;27;20914;-82
2022/10/21 01:01:00;;;;;;;2.97;1.73;;;13.50;99.90;;;;;;5134508;27;20493;-82
2022/10/21 01:03:29;;;;;;;5.13;1.90;;;13.50;99.90;;;;;;5134279;27;20451;-82
2022/10/21 01:06:00;;;;;;;1.33;0.90;;;13.50;99.90;;;;;;5134241;27;20951;-82
2022/10/21 01:08:27;;;;;;;2.70;2.20;;;13.50;99.90;;;;;;5134571;27;20434;-82
2022/10/21 01:10:54;;;;;;;1.47;0.87;;;13.50;99.90;;;;;;5134253;27;20465;-82
2022/10/21 01:13:28;;;;;;;3.40;1.17;;;13.50;99.90;;;;;;5134467;27;20443;-82
2022/10/21 01:16:03;;;;;;;3.73;1.87;;;13.50;99.90;;;;;;5134059;27;20479;-82
2022/10/21 01:18:39;;;;;;;1.60;0.93;;;13.50;99.90;;;;;;5134479;27;20430;-82
2022/10/21 01:21:24;;;;;;;3.10;1.30;;;13.50;99.90;;;;;;5134382;28;20450;-82
2022/10/21 01:24:21;;;;;;;3.73;1.50;;;13.50;99.90;;;;;;5134334;28;20430;-82
2022/10/21 01:27:05;;;;;;;4.07;1.40;;;13.50;99.90;;;;;;5124960;27;20462;-82
2022/10/21 01:30:07;;;;;;;3.00;1.30;;;13.50;99.90;;;;;;5134377;28;20432;-82
2022/10/21 01:32:50;;;;;;;4.33;2.00;;;13.50;99.90;;;;;;5134298;27;20796;-82
2022/10/21 01:35:21;;;;;;;0.93;0.87;;;13.50;99.90;;;;;;5134319;28;20793;-82
2022/10/21 01:37:56;;;;;;;3.70;1.50;;;13.50;99.90;;;;;;5134285;27;20434;-82
2022/10/21 01:40:26;;;;;;;1.70;1.20;;;13.50;99.90;;;;;;5134067;28;20485;-82
2022/10/21 01:42:57;;;;;;;1.37;0.90;;;13.60;99.90;;;;;;5134209;28;20428;-82
2022/10/21 01:45:29;;;;;;;1.53;1.43;;;13.50;99.90;;;;;;5134256;28;20431;-82
2022/10/21 01:48:01;;;;;;;1.60;1.00;;;13.50;99.90;;;;;;5134140;28;20431;-81
2022/10/21 01:50:31;;;;;;;3.77;1.40;;;13.50;99.90;;;;;;5134064;28;20459;-82
2022/10/21 01:53:04;;;;;;;1.77;1.47;;;13.50;99.90;;;;;;5134198;27;20454;-82
2022/10/21 01:55:32;;;;;;;2.60;1.00;;;13.40;99.90;;;;;;5134102;28;20424;-82
2022/10/21 01:58:03;;;;;;;3.87;1.40;;;13.50;99.90;;;;;;5134145;28;20450;-82
2022/10/21 02:00:32;;;;;;;3.00;1.30;;;13.50;99.90;;;;;;5133588;28;20494;-82
2022/10/21 02:03:04;;;;;;;5.90;1.43;;;13.60;99.90;;;;;;5134012;28;20442;-82
2022/10/21 02:05:34;;;;;;;1.43;1.33;;;13.60;99.90;;;;;;5133993;28;20432;-81
2022/10/21 02:08:01;;;;;;;1.60;1.00;;;13.60;99.90;;;;;;5133954;28;20447;-81
2022/10/21 02:10:31;;;;;;;1.87;1.27;;;13.70;99.90;;;;;;5133869;28;20465;-82
2022/10/21 02:13:01;;;;;;;12.57;1.77;;;13.60;99.90;;;;;;5133904;28;20435;-82
2022/10/21 02:15:30;;;;;;;2.90;1.53;;;13.60;99.90;;;;;;5134077;28;20486;-81
2022/10/21 02:18:02;;;;;;;2.30;1.37;;;13.60;99.90;;;;;;5133840;28;20443;-81
2022/10/21 02:20:34;;;;;;;11.63;2.57;;;13.60;99.90;;;;;;5133706;28;20489;-82
2022/10/21 02:23:01;;;;;;;3.73;1.10;;;13.60;99.90;;;;;;5134101;27;20439;-82
2022/10/21 02:25:32;;;;;;;3.20;1.00;;;13.60;99.90;;;;;;5137495;27;20442;-82
2022/10/21 02:27:59;;;;;;;3.17;1.60;;;13.60;99.90;;;;;;5137217;27;20426;-82
2022/10/21 02:30:30;;;;;;;1.73;1.30;;;13.60;99.90;;;;;;5137397;27;20467;-82
2022/10/21 02:33:01;;;;;;;2.60;1.27;;;13.60;99.90;;;;;;5137438;27;20801;-82
2022/10/21 02:35:39;;;;;;;1.87;1.40;;;13.60;99.90;;;;;;5137347;27;20465;-82
2022/10/21 02:38:11;;;;;;;2.80;1.77;;;13.70;99.90;;;;;;5137297;27;20423;-82
2022/10/21 02:40:43;;;;;;;2.63;1.23;;;13.60;99.90;;;;;;5137153;27;20482;-82
2022/10/21 02:43:15;;;;;;;3.67;1.43;;;13.70;99.90;;;;;;5137237;27;20427;-82
2022/10/21 02:45:42;;;;;;;4.30;2.33;;;13.70;99.90;;;;;;5137172;27;20429;-81
2022/10/21 02:48:09;;;;;;;2.83;2.10;;;13.70;99.90;;;;;;5137088;27;20457;-81
2022/10/21 02:50:37;;;;;;;3.70;2.43;;;13.70;99.90;;;;;;5136999;27;20463;-81
2022/10/21 02:53:03;;;;;;;1.83;1.73;;;13.70;99.90;;;;;;5137052;27;20446;-81
2022/10/21 02:55:30;;;;;;;3.83;1.60;;;13.70;99.90;;;;;;5136942;27;20439;-82
2022/10/21 02:57:57;;;;;;;7.57;1.13;;;13.60;99.90;;;;;;5136887;27;20453;-82
2022/10/21 03:00:24;;;;;;;2.43;1.33;;;13.70;99.90;;;;;;5136681;27;20490;-82
2022/10/21 03:02:50;;;;;;;2.10;1.00;;;13.70;99.90;;;;;;5136801;27;20528;-81
2022/10/21 03:05:17;;;;;;;2.97;1.73;;;13.70;99.90;;;;;;5136726;27;20458;-82
2022/10/21 03:07:45;;;;;;;1.03;0.80;;;13.80;99.90;;;;;;5136670;27;20451;-82
2022/10/21 03:10:12;;;;;;;2.27;1.47;;;13.80;99.90;;;;;;5136543;27;20462;-82
2022/10/21 03:12:39;;;;;;;2.40;0.93;;;13.80;99.90;;;;;;5136598;27;20494;-82
2022/10/21 03:15:06;;;;;;;1.13;1.07;;;13.80;99.90;;;;;;5136366;27;20805;-82
2022/10/21 03:17:33;;;;;;;1.93;0.93;;;13.80;99.90;;;;;;5137071;27;20894;-83
2022/10/21 03:20:00;;;;;;;3.20;1.33;;;13.80;99.90;;;;;;5136002;27;20839;-82
2022/10/21 03:22:27;;;;;;;1.57;1.20;;;13.80;99.90;;;;;;5136462;27;20455;-82
2022/10/21 03:24:55;;;;;;;0.77;0.77;;;13.80;99.90;;;;;;5136322;27;20446;-82
2022/10/21 03:27:21;;;;;;;1.40;1.30;;;13.80;99.90;;;;;;5136284;27;20442;-82
2022/10/21 03:29:48;;;;;;;1.20;1.10;;;13.80;99.90;;;;;;5136197;27;20445;-82
2022/10/21 03:32:15;;;;;;;13.83;1.20;;;13.80;99.90;;;;;;5136260;27;20442;-82
2022/10/21 03:34:42;;;;;;;2.63;0.87;;;13.80;99.90;;;;;;5136219;27;20446;-82
2022/10/21 03:37:08;;;;;;;2.23;1.23;;;13.80;99.90;;;;;;5136120;27;20450;-82
2022/10/21 03:39:35;;;;;;;5.33;1.00;;;13.80;99.90;;;;;;5136011;27;20446;-83
2022/10/21 03:42:03;;;;;;;2.50;1.17;;;13.80;99.90;;;;;;5136014;27;20469;-82
2022/10/21 03:44:30;;;;;;;1.20;1.10;;;13.80;99.90;;;;;;5135921;27;20457;-83
2022/10/21 03:46:57;;;;;;;1.07;0.93;;;13.80;99.90;;;;;;5135963;27;20469;-83
2022/10/21 03:49:24;;;;;;;1.77;1.23;;;13.80;99.90;;;;;;5135918;27;20473;-83
2022/10/21 03:51:50;;;;;;;2.43;0.73;;;13.80;99.90;;;;;;5136358;27;20492;-82
2022/10/21 03:54:18;;;;;;;2.50;1.10;;;13.80;99.90;;;;;;5136206;27;20451;-82
2022/10/21 03:56:46;;;;;;;1.23;1.10;;;13.80;99.90;;;;;;5136241;27;20446;-82
2022/10/21 03:59:14;;;;;;;1.23;1.13;;;13.80;99.90;;;;;;5136109;27;20435;-82
2022/10/21 04:01:41;;;;;;;1.70;1.30;;;13.80;99.90;;;;;;5135992;27;20489;-82
2022/10/21 04:04:07;;;;;;;3.30;1.10;;;13.80;99.90;;;;;;5135757;27;20454;-82
2022/10/21 04:06:34;;;;;;;2.90;1.23;;;13.80;99.90;;;;;;5135564;27;20447;-82
2022/10/21 04:09:01;;;;;;;10.23;2.00;;;13.80;99.90;;;;;;5135557;27;20470;-82
2022/10/21 04:11:28;;;;;;;1.70;1.47;;;13.80;99.90;;;;;;5135461;27;20473;-83
2022/10/21 04:13:54;;;;;;;0.90;0.70;;;13.80;99.90;;;;;;5135450;27;20469;-83
2022/10/21 04:16:23;;;;;;;12.10;1.00;;;13.80;99.90;;;;;;5134939;27;20505;-82
2022/10/21 04:18:50;;;;;;;2.93;1.00;;;13.80;99.90;;;;;;5135022;27;20459;-82
2022/10/21 04:21:17;;;;;;;2.60;0.97;;;13.80;99.90;;;;;;5134892;27;20556;-82
2022/10/21 04:23:43;;;;;;;1.27;1.27;;;13.80;99.90;;;;;;5135032;27;20431;-82
2022/10/21 04:26:10;;;;;;;0.70;0.70;;;13.80;99.90;;;;;;5134879;27;20454;-82
2022/10/21 04:28:37;;;;;;;1.30;0.77;;;13.90;99.90;;;;;;5134838;27;21016;-82
2022/10/21 04:31:04;;;;;;;2.83;2.10;;;13.90;99.90;;;;;;5134700;27;20477;-82
2022/10/21 04:33:33;;;;;;;1.13;0.90;;;13.80;99.90;;;;;;5135020;27;20446;-82
2022/10/21 04:35:59;;;;;;;1.77;1.07;;;13.90;99.90;;;;;;5134726;27;20971;-81
2022/10/21 04:38:26;;;;;;;1.90;0.77;;;13.90;99.90;;;;;;5135009;27;20451;-82
2022/10/21 04:40:57;;;;;;;3.93;0.80;;;13.90;99.90;;;;;;5134837;27;20483;-81
2022/10/21 04:43:25;;;;;;;8.73;0.90;;;13.90;99.90;;;;;;5134903;27;20457;-81
2022/10/21 04:45:51;;;;;;;3.07;0.60;;;13.90;99.90;;;;;;5134222;27;20941;-81
2022/10/21 04:48:19;;;;;;;2.10;1.03;;;13.90;99.90;;;;;;5134509;27;20451;-81
2022/10/21 04:50:48;;;;;;;0.80;0.60;;;13.90;99.90;;;;;;5134750;27;20462;-81
2022/10/21 04:53:15;;;;;;;0.80;0.80;;;13.90;99.90;;;;;;5134826;27;20447;-81
2022/10/21 04:55:41;;;;;;;2.23;1.90;;;13.90;99.90;;;;;;5134849;27;20817;-81
2022/10/21 04:58:08;;;;;;;1.00;0.90;;;13.90;99.90;;;;;;5134757;27;20454;-81
2022/10/21 05:00:35;;;;;;;0.93;0.70;;;13.90;99.90;;;;;;5134526;27;20481;-81
2022/10/21 05:03:02;;;;;;;1.40;1.03;;;13.90;99.90;;;;;;5134268;27;20439;-81
2022/10/21 05:05:28;;;;;;;0.60;0.57;;;13.90;99.90;;;;;;5134597;27;20468;-80
2022/10/21 05:07:56;;;;;;;0.70;0.50;;;13.90;99.90;;;;;;5134491;27;20465;-81
2022/10/21 05:10:24;;;;;;;5.10;0.87;;;13.90;99.90;;;;;;5134458;27;20459;-81
2022/10/21 05:12:51;;;;;;;0.90;0.90;;;13.90;99.90;;;;;;5134187;27;20949;-81
2022/10/21 05:15:18;;;;;;;2.00;0.63;;;14.00;99.90;;;;;;5134211;27;20561;-81
2022/10/21 05:17:45;;;;;;;1.30;0.67;;;14.00;99.90;;;;;;5134381;27;20431;-81
2022/10/21 05:20:12;;;;;;;1.63;1.10;;;14.00;99.90;;;;;;5134203;28;20471;-81
2022/10/21 05:22:38;;;;;;;1.00;0.97;;;14.00;99.90;;;;;;5134310;28;20442;-80
2022/10/21 05:25:07;;;;;;;0.90;0.57;;;14.00;99.90;;;;;;5134012;28;20945;-81
2022/10/21 05:27:34;;;;;;;0.77;0.40;;;14.00;99.90;;;;;;5134275;28;20443;-81
2022/10/21 05:30:01;;;;;;;0.73;0.73;;;14.10;99.90;;;;;;5133903;28;20458;-81
2022/10/21 05:32:28;;;;;;;2.27;0.87;;;14.10;99.90;;;;;;5134267;28;20446;-80
2022/10/21 05:34:55;;;;;;;3.20;0.90;;;14.10;99.90;;;;;;5134262;28;20449;-80
2022/10/21 05:37:21;;;;;;;1.50;0.70;;;14.00;99.90;;;;;;5134236;28;20447;-80
2022/10/21 05:39:48;;;;;;;0.40;0.40;;;14.10;99.90;;;;;;5133879;28;20808;-80
2022/10/21 05:42:16;;;;;;;0.63;0.60;;;14.00;99.90;;;;;;5134126;28;20489;-80
2022/10/21 05:44:43;;;;;;;1.63;1.10;;;14.00;99.90;;;;;;5134170;28;20450;-80
2022/10/21 05:47:10;;;;;;;1.77;1.20;;;14.00;99.90;;;;;;5134145;28;20458;-80
2022/10/21 05:49:36;;;;;;;1.00;0.53;;;14.10;99.90;;;;;;5134125;28;20450;-80
2022/10/21 05:52:03;;;;;;;0.50;0.50;;;14.00;99.90;;;;;;5133686;28;20463;-80
2022/10/21 05:54:30;;;;;;;1.53;1.10;;;14.10;99.90;;;;;;5134074;28;20442;-79
2022/10/21 05:56:57;;;;;;;0.53;0.40;;;14.10;99.90;;;;;;5134012;28;20446;-80
2022/10/21 05:59:25;;;;;;;4.63;1.83;;;14.10;99.90;;;;;;5136733;27;20439;-79
2022/10/21 06:01:52;;;;;;;1.73;0.60;;;14.10;99.90;;;;;;5137562;27;20493;-79
2022/10/21 06:04:19;;;;;;;2.80;1.10;;;14.10;99.90;;;;;;5137646;27;20942;-79
2022/10/21 06:06:46;;;;;;;0.60;0.50;;;14.20;99.90;;;;;;5137597;27;20945;-80
2022/10/21 06:09:12;;;;;;;0.40;0.40;;;14.20;99.90;;;;;;5137544;27;20450;-80
2022/10/21 06:11:39;;;;;;;2.40;0.60;;;14.20;99.90;;;;;;5137772;27;20454;-80
2022/10/21 06:14:06;;;;;;;0.73;0.60;;;14.10;99.90;;;;;;5137767;27;20447;-80
2022/10/21 06:16:34;;;;;;;1.00;0.70;;;14.10;99.90;;;;;;5137328;27;20532;-79
2022/10/21 06:19:01;;;;;;;1.47;1.00;;;14.10;99.90;;;;;;5137655;27;20472;-80
2022/10/21 06:21:28;;;;;;;2.40;1.67;;;14.10;99.90;;;;;;5137503;27;20489;-80
2022/10/21 06:23:55;;;;;;;1.40;0.67;;;14.10;99.90;;;;;;5137530;27;20454;-80
2022/10/21 06:26:22;;;;;;;2.00;0.50;;;14.10;99.90;;;;;;5137552;27;20443;-79
2022/10/21 06:28:49;;;;;;;1.23;1.00;;;14.10;99.90;;;;;;5137279;27;20434;-80
2022/10/21 06:31:19;;;;;;;1.53;0.80;;;14.20;99.90;;;;;;5137313;27;20462;-80
2022/10/21 06:33:47;;;;;;;0.53;0.53;;;14.20;99.90;;;;;;5137602;27;20478;-80
2022/10/21 06:36:14;;;;;;;4.40;0.60;;;14.20;99.90;;;;;;5137054;27;20953;-83
2022/10/21 06:38:41;;;;;;;4.07;0.70;;;14.20;99.90;;;;;;5136998;27;20457;-80
2022/10/21 06:41:10;;;;;;;2.10;1.47;;;14.20;99.90;;;;;;5137114;27;20512;-80
2022/10/21 06:43:36;;;;;;;3.03;1.23;;;14.20;99.90;;;;;;5136934;27;20427;-80
2022/10/21 06:46:05;;;;;;;3.93;0.70;;;14.20;99.90;;;;;;5137137;27;20449;-80
2022/10/21 06:48:32;;;;;;;0.47;0.47;;;14.20;99.90;;;;;;5136764;27;20960;-80
2022/10/21 06:51:02;;;;;;;0.70;0.53;;;14.20;99.90;;;;;;5136986;27;20471;-80
2022/10/21 06:53:29;;;;;;;1.20;0.73;;;14.10;99.90;;;;;;5137039;27;20443;-80
2022/10/21 06:56:03;;;;;;;0.80;0.50;;;14.10;99.90;;;;;;5136974;27;20453;-80
2022/10/21 06:58:31;;;;;;;1.50;0.70;;;14.10;99.90;;;;;;5136642;27;20472;-79
2022/10/21 07:00:57;;;;;;;1.80;1.37;;;14.10;99.90;;;;;;5136680;27;20482;-80
2022/10/21 07:03:25;;;;;;;2.40;0.50;;;14.10;99.90;;;;;;5136505;27;20450;-80
2022/10/21 07:05:58;;;;;;;3.47;0.70;;;14.10;99.90;;;;;;5136398;27;20938;-79
2022/10/21 07:08:27;;;;;;;1.23;0.47;;;14.20;99.90;;;;;;5136775;27;20488;-79
2022/10/21 07:10:54;;;;;;;1.03;0.60;;;14.20;99.90;;;;;;5135952;27;20994;-79
2022/10/21 07:13:21;;;;;;;2.40;0.80;;;14.20;99.90;;;;;;5136624;27;20507;-79
2022/10/21 07:15:48;;;;;;;1.00;0.80;;;14.20;99.90;;;;;;5135959;27;20478;-80
2022/10/21 07:18:15;;;;;;;0.93;0.70;;;14.20;99.90;;;;;;5136221;27;20450;-80
2022/10/21 07:20:41;;;;;;;2.60;0.50;;;14.20;99.90;;;;;;5136355;27;20466;-79
2022/10/21 07:23:08;;;;;;;3.40;0.67;;;14.30;99.90;;;;;;5136430;27;20439;-79
2022/10/21 07:25:37;;;;;;;1.53;0.93;;;14.20;99.90;;;;;;5136346;27;20443;-79
2022/10/21 07:28:04;;;;;;;1.07;0.70;;;14.30;99.90;;;;;;5136049;27;20963;-79
2022/10/21 07:30:31;;;;;;;0.67;0.57;;;14.30;99.90;;;;;;5136285;27;20466;-79
2022/10/21 07:32:57;;;;;;;1.03;0.93;;;14.40;99.90;;;;;;5136255;27;20423;-79
2022/10/21 07:35:24;;;;;;;5.80;0.60;;;14.40;99.90;;;;;;5136256;27;20443;-79
2022/10/21 07:37:51;;;;;;;1.90;0.60;;;14.40;99.90;;;;;;5135889;27;20435;-79
2022/10/21 07:40:18;;;;;;;1.30;0.60;;;14.40;99.90;;;;;;5136038;27;20833;-79
2022/10/21 07:42:46;;;;;;;1.17;0.60;;;14.50;99.90;;;;;;5135771;27;20999;-79
2022/10/21 07:45:13;;;;;;;0.40;0.30;;;14.50;99.90;;;;;;5135679;27;20945;-80
2022/10/21 07:47:40;;;;;;;2.67;1.00;;;14.40;99.90;;;;;;5135609;27;20945;-79
2022/10/21 07:50:07;;;;;;;0.93;0.80;;;14.40;99.90;;;;;;5135847;27;20467;-79
2022/10/21 07:52:34;;;;;;;0.40;0.40;;;14.40;99.90;;;;;;5135857;27;20439;-80
2022/10/21 07:55:01;;;;;;;2.07;0.70;;;14.30;99.90;;;;;;5136271;27;20797;-80
2022/10/21 07:57:28;;;;;;;0.70;0.50;;;14.30;99.90;;;;;;5135778;27;20442;-80
2022/10/21 07:59:56;;;;;;;2.20;0.70;;;14.30;99.90;;;;;;5135656;27;20443;-80
2022/10/21 08:02:23;;;;;;;1.70;0.70;;;14.30;99.90;;;;;;5135232;27;20475;-79
2022/10/21 08:04:51;;;;;;;1.00;0.60;;;14.30;99.90;;;;;;5135648;27;20533;-79
2022/10/21 08:07:18;;;;;;;1.77;0.80;;;14.30;99.90;;;;;;5135583;27;20446;-79
2022/10/21 08:09:44;;;;;;;1.07;0.60;;;14.30;99.90;;;;;;5135103;27;20960;-79
2022/10/21 08:12:11;;;;;;;0.93;0.60;;;14.30;99.90;;;;;;5136325;27;20469;-80
2022/10/21 08:14:39;;;;;;;0.50;0.50;;;14.30;99.90;;;;;;5135417;27;20454;-79
2022/10/21 08:17:07;;;;;;;0.60;0.50;;;14.30;99.90;;;;;;5134905;27;20478;-79
2022/10/21 08:19:34;;;;;;;0.47;0.47;;;14.40;99.90;;;;;;5135330;27;20446;-79
2022/10/21 08:22:01;;;;;;;1.90;0.60;;;14.40;99.90;;;;;;5134450;27;20493;-79
2022/10/21 08:24:28;;;;;;;0.70;0.50;;;14.30;99.90;;;;;;5134962;27;20809;-78
2022/10/21 08:26:55;;;;;;;0.83;0.60;;;14.30;99.90;;;;;;5134933;27;21013;-79
2022/10/21 08:29:22;;;;;;;0.70;0.50;;;14.40;99.90;;;;;;5134817;27;21021;-79
2022/10/21 08:31:49;;;;;;;1.17;0.50;;;14.40;99.90;;;;;;5134733;27;20837;-79
2022/10/21 08:34:17;;;;;;;1.73;0.40;;;14.40;99.90;;;;;;5134722;27;20817;-79
2022/10/21 08:36:44;;;;;;;0.60;0.60;;;14.30;99.90;;;;;;5135027;27;20447;-80
2022/10/21 08:39:11;;;;;;;0.50;0.50;;;14.30;99.90;;;;;;5134935;27;20453;-79
2022/10/21 08:42:10;;;;;;;1.27;0.90;;;14.30;99.90;;;;;;5134473;27;20482;-79
2022/10/21 08:44:43;;;;;;;3.40;0.60;;;14.30;99.90;;;;;;5132298;27;20450;-80
2022/10/21 08:47:24;;;;;;;0.60;0.47;;;14.30;99.90;;;;;;5134850;27;20434;-80
2022/10/21 08:49:58;;;;;;;0.90;0.60;;;14.30;99.90;;;;;;5134814;27;20419;-79
2022/10/21 08:52:31;;;;;;;1.00;0.53;;;14.30;99.90;;;;;;5135077;27;20415;-81
2022/10/21 08:55:01;;;;;;;1.33;0.40;;;14.30;99.90;;;;;;5134791;27;20449;-79
2022/10/21 08:57:28;;;;;;;0.43;0.40;;;14.30;99.90;;;;;;5134693;27;20450;-79
2022/10/21 08:59:55;;;;;;;1.33;0.70;;;14.40;99.90;;;;;;5134580;27;20443;-79
2022/10/21 09:02:33;;;;;;;0.50;0.50;;;14.50;99.90;;;;;;5134502;27;20483;-79
2022/10/21 09:05:18;;;;;;;5.60;1.53;;;14.40;99.90;;;;;;5134919;27;20427;-79
2022/10/21 09:07:54;;;;;;;2.40;0.60;;;14.50;99.90;;;;;;5134265;27;20928;-79
2022/10/21 09:10:28;;;;;;;10.87;0.80;;;14.50;99.90;;;;;;5134420;27;20466;-79
2022/10/21 09:13:03;;;;;;;0.50;0.40;;;14.60;99.90;;;;;;5134540;27;20434;-79
2022/10/21 09:15:37;;;;;;;0.50;0.50;;;14.60;99.90;;;;;;5134232;27;20478;-80
2022/10/21 09:18:30;;;;;;;0.53;0.50;;;14.70;99.90;;;;;;5134391;27;20442;-79
2022/10/21 09:21:04;;;;;;;0.57;0.40;;;14.80;99.90;;;;;;5134416;28;20822;-79
2022/10/21 09:23:45;;;;;;;1.70;1.07;;;14.80;99.90;;;;;;5134388;28;20488;-79
2022/10/21 09:26:23;;;;;;;0.70;0.60;;;14.80;99.90;;;;;;5134089;28;20431;-79
2022/10/21 09:28:50;;;;;;;0.73;0.47;;;14.80;99.90;;;;;;5134071;28;20807;-79
2022/10/21 09:31:20;;;;;;;4.27;0.40;;;14.80;99.90;;;;;;5134231;28;20470;-80
2022/10/21 09:33:50;;;;;;;0.40;0.40;;;14.70;99.90;;;;;;5137807;27;20434;-80
2022/10/21 09:36:23;;;;;;;0.50;0.40;;;14.70;99.90;;;;;;5138240;27;20431;-80
2022/10/21 09:38:56;;;;;;;0.50;0.30;;;14.70;99.90;;;;;;5138561;27;20435;-80
2022/10/21 09:41:26;;;;;;;0.40;0.30;;;14.70;99.90;;;;;;5138297;27;20486;-80
2022/10/21 09:43:54;;;;;;;0.30;0.30;;;14.70;99.90;;;;;;5139251;27;20454;-80
2022/10/21 09:46:22;;;;;;;0.40;0.40;;;14.80;99.90;;;;;;5138552;27;20431;-80
2022/10/21 09:48:51;;;;;;;0.60;0.50;;;14.90;99.90;;;;;;5137969;27;20446;-80
2022/10/21 09:51:23;;;;;;;2.20;0.30;;;15.00;99.90;;;;;;5138191;27;20462;-80
2022/10/21 09:53:52;;;;;;;0.57;0.40;;;15.10;99.90;;;;;;5137977;27;20906;-80
2022/10/21 09:56:21;;;;;;;0.43;0.40;;;15.10;99.90;;;;;;5138173;27;20449;-81
2022/10/21 09:59:02;;;;;;;0.80;0.50;;;15.10;99.90;;;;;;5138097;27;20446;-81
2022/10/21 10:01:30;;;;;;;0.73;0.60;;;15.20;99.90;;;;;;5137984;27;20470;-80
2022/10/21 10:03:57;;;;;;;9.57;0.73;;;15.20;99.90;;;;;;5137985;27;20443;-81
2022/10/21 10:06:34;;;;;;;2.27;0.70;;;15.30;99.90;;;;;;5137957;27;20446;-81
2022/10/21 10:09:07;;;;;;;0.80;0.50;;;15.20;99.90;;;;;;5137618;27;20435;-81
2022/10/21 10:11:34;;;;;;;1.53;1.43;;;15.20;99.90;;;;;;5137797;27;20466;-80
2022/10/21 10:14:29;;;;;;;0.80;0.60;;;15.20;99.90;;;;;;5137542;27;20450;-81
2022/10/21 10:16:56;;;;;;;0.50;0.40;;;15.10;99.90;;;;;;5137242;27;20490;-80
2022/10/21 10:19:25;;;;;;;0.57;0.57;;;15.10;99.90;;;;;;5137400;27;20426;-81
2022/10/21 10:22:12;;;;;;;0.60;0.60;;;15.00;99.90;;;;;;5137556;27;20478;-81
2022/10/21 10:24:40;;;;;;;0.30;0.30;;;15.00;99.90;;;;;;5137788;27;20427;-81
2022/10/21 10:27:11;;;;;;;0.40;0.40;;;15.10;99.90;;;;;;5137277;27;20949;-81
2022/10/21 10:29:40;;;;;;;0.77;0.50;;;15.20;99.90;;;;;;5137580;27;20427;-81
2022/10/21 10:32:15;;;;;;;1.27;0.70;;;15.20;99.90;;;;;;5137373;27;20455;-81
2022/10/21 10:34:51;;;;;;;0.80;0.53;;;15.20;99.90;;;;;;5137492;27;20426;-81
2022/10/21 10:37:22;;;;;;;0.50;0.50;;;15.30;99.90;;;;;;5137164;27;20918;-80
2022/10/21 10:39:54;;;;;;;0.80;0.40;;;15.30;99.90;;;;;;5137277;27;20435;-80
2022/10/21 10:42:24;;;;;;;0.70;0.50;;;15.30;99.90;;;;;;5137245;27;20473;-80
2022/10/21 10:44:54;;;;;;;0.50;0.40;;;15.30;99.90;;;;;;5136555;27;20435;-81
2022/10/21 10:47:25;;;;;;;0.90;0.90;;;15.30;99.90;;;;;;5137672;27;20446;-80
2022/10/21 10:49:52;;;;;;;0.40;0.40;;;15.40;99.90;;;;;;5137113;27;20435;-80
2022/10/21 10:52:23;;;;;;;1.90;0.30;;;15.40;99.90;;;;;;5137079;27;20442;-80
2022/10/21 10:55:17;;;;;;;0.60;0.40;;;15.50;99.90;;;;;;5137104;27;20480;-81
2022/10/21 10:57:49;;;;;;;0.40;0.40;;;15.50;99.90;;;;;;5137070;27;20450;-81
2022/10/21 11:00:19;;;;;;;0.40;0.30;;;15.60;99.90;;;;;;5136910;27;20469;-80
2022/10/21 11:02:54;;;;;;;1.53;0.67;;;15.60;99.90;;;;;;5136680;27;21015;-80
2022/10/21 11:05:27;;;;;;;0.77;0.40;;;15.70;99.90;;;;;;5136564;27;20966;-80
2022/10/21 11:07:59;;;;;;;0.50;0.50;;;15.70;99.90;;;;;;5136847;27;20435;-80
2022/10/21 11:10:33;;;;;;;0.50;0.40;;;15.80;99.90;;;;;;5136702;27;20463;-80
2022/10/21 11:13:01;;;;;;;0.40;0.30;;;15.90;99.90;;;;;;5136417;27;20439;-80
2022/10/21 11:15:39;;;;;;;1.23;0.30;;;16.00;99.90;;;;;;5136522;27;20471;-80
2022/10/21 11:18:14;;;;;;;1.33;0.40;;;16.10;99.90;;;;;;5136624;27;20445;-79
2022/10/21 11:20:47;;;;;;;0.40;0.30;;;16.20;99.90;;;;;;5136503;27;20466;-80
2022/10/21 11:23:33;;;;;;;0.40;0.40;;;16.30;99.90;;;;;;5136494;27;20473;-80
2022/10/21 11:26:06;;;;;;;0.40;0.33;;;16.50;99.90;;;;;;5136206;27;20423;-80
2022/10/21 11:28:38;;;;;;;0.40;0.30;;;16.60;99.90;;;;;;5136445;27;20427;-80
2022/10/21 11:31:17;;;;;;;0.40;0.30;;;16.80;99.90;;;;;;5136271;27;20474;-80
2022/10/21 11:33:54;;;;;;;0.60;0.50;;;17.00;99.90;;;;;;5136028;27;20928;-80
2022/10/21 11:36:29;;;;;;;0.67;0.43;;;17.00;99.90;;;;;;5136257;27;20431;-80
2022/10/21 11:39:22;;;;;;;0.30;0.30;;;17.10;99.90;;;;;;5136164;27;20431;-80
2022/10/21 11:41:54;;;;;;;0.40;0.30;;;17.10;99.90;;;;;;5116122;27;20469;-81
2022/10/21 11:44:29;;;;;;;0.40;0.30;;;17.20;99.90;;;;;;5136149;27;20430;-81
2022/10/21 11:47:07;;;;;;;0.30;0.30;;;17.40;99.90;;;;;;5135988;27;20427;-81
2022/10/21 11:49:45;;;;;;;0.30;0.30;;;17.30;99.90;;;;;;5135972;27;20431;-81
2022/10/21 11:52:22;;;;;;;0.40;0.30;;;17.40;99.90;;;;;;5135994;27;20780;-81
2022/10/21 11:55:09;;;;;;;0.40;0.30;;;17.30;99.90;;;;;;5135875;27;20418;-81
2022/10/21 11:57:46;;;;;;;0.30;0.30;;;17.20;99.90;;;;;;5134980;27;20410;-81
2022/10/21 12:00:16;;;;;;;0.40;0.30;;;17.00;99.90;;;;;;5135743;27;20501;-81
2022/10/21 12:02:45;;;;;;;0.40;0.33;;;16.80;99.90;;;;;;5135905;27;20806;-81
2022/10/21 12:05:22;;;;;;;1.70;0.60;;;16.70;99.90;;;;;;5135636;27;20454;-81
2022/10/21 12:08:12;;;;;;;0.30;0.30;;;16.60;99.90;;;;;;5135285;27;20905;-81
2022/10/21 12:10:46;;;;;;;0.30;0.30;;;16.60;99.90;;;;;;5135516;27;20466;-81
2022/10/21 12:13:16;;;;;;;0.40;0.30;;;16.60;99.90;;;;;;5135755;27;20434;-81
2022/10/21 12:15:47;;;;;;;0.40;0.30;;;16.40;99.90;;;;;;5135515;27;20478;-81
2022/10/21 12:18:17;;;;;;;0.40;0.30;;;16.40;99.90;;;;;;5135439;27;20427;-81
2022/10/21 12:20:47;;;;;;;0.40;0.30;;;16.40;99.90;;;;;;5135289;27;20465;-81
2022/10/21 12:23:19;;;;;;;0.30;0.30;;;16.50;99.90;;;;;;5135539;27;20455;-81
2022/10/21 12:26:00;;;;;;;0.40;0.40;;;16.60;99.90;;;;;;5135496;27;20445;-81
2022/10/21 12:28:36;;;;;;;0.30;0.30;;;16.50;99.90;;;;;;5135357;27;20897;-81
2022/10/21 12:31:14;;;;;;;0.37;0.30;;;16.50;99.90;;;;;;5135003;27;20459;-82
2022/10/21 12:33:43;;;;;;;0.40;0.30;;;16.50;99.90;;;;;;5135086;27;20427;-82
2022/10/21 12:36:20;;;;;;;0.40;0.30;;;16.50;99.90;;;;;;5135271;27;20451;-82
2022/10/21 12:38:49;;;;;;;0.40;0.27;;;16.40;99.90;;;;;;5134889;27;20431;-81
2022/10/21 12:41:30;;;;;;;0.90;0.40;;;16.40;99.90;;;;;;5135125;27;20471;-81
2022/10/21 12:44:23;;;;;;;0.40;0.40;;;16.30;99.90;;;;;;5134841;27;20469;-81
2022/10/21 12:46:52;;;;;;;0.30;0.30;;;16.20;99.90;;;;;;5134897;27;20453;-81
2022/10/21 12:49:22;;;;;;;0.40;0.30;;;16.10;99.90;;;;;;5134856;27;20783;-81
2022/10/21 12:51:52;;;;;;;1.80;0.40;;;16.00;99.90;;;;;;5134495;27;20926;-81
2022/10/21 12:54:23;;;;;;;0.40;0.37;;;16.00;99.90;;;;;;5134818;27;20425;-81
2022/10/21 12:56:58;;;;;;;0.30;0.27;;;16.00;99.90;;;;;;5134756;27;20439;-80
2022/10/21 12:59:31;;;;;;;0.50;0.30;;;16.00;99.90;;;;;;5134732;27;20435;-80
2022/10/21 13:02:28;;;;;;;0.40;0.30;;;16.10;99.90;;;;;;5134562;27;20473;-81